createdAt,value
2018-07-30T00:00:02.223Z,100817.02
2018-07-30T00:02:38.043Z,100823.05
2018-07-30T00:07:16.085Z,100819.86
2018-07-30T00:09:45.621Z,100821.25
2018-07-30T00:12:15.068Z,100826.33
2018-07-30T00:14:44.462Z,100818.52
2018-07-30T00:17:13.131Z,100814.97
2018-07-30T00:19:42.294Z,100816.75
2018-07-30T00:22:12.381Z,100819.09
2018-07-30T00:24:42.210Z,100818.78
2018-07-30T00:27:11.903Z,100820.67
2018-07-30T00:29:41.154Z,100819.69
2018-07-30T00:32:15.321Z,100827.49
2018-07-30T00:34:47.028Z,100821.49
2018-07-30T00:37:15.982Z,100826.23
2018-07-30T00:39:44.682Z,100826.41
2018-07-30T00:42:13.809Z,100825.48
2018-07-30T00:44:42.946Z,100824.73
2018-07-30T00:47:11.488Z,100823.50
2018-07-30T00:49:40.645Z,100828.36
2018-07-30T00:52:09.076Z,100815.23
2018-07-30T00:54:38.013Z,100823.30
2018-07-30T00:57:06.716Z,100829.26
2018-07-30T00:59:40.788Z,100820.25
2018-07-30T01:02:11.298Z,100825.96
2018-07-30T01:04:40.705Z,100821.06
2018-07-30T01:07:09.464Z,100825.39
2018-07-30T01:09:38.189Z,100818.20
2018-07-30T01:12:06.749Z,100825.54
2018-07-30T01:14:35.408Z,100834.59
2018-07-30T01:17:10.181Z,100836.15
2018-07-30T01:19:39.245Z,100830.58
2018-07-30T01:22:12.332Z,100835.36
2018-07-30T01:24:43.036Z,100827.70
2018-07-30T01:27:12.667Z,100828.55
2018-07-30T01:29:43.618Z,100829.37
2018-07-30T01:32:16.122Z,100827.03
2018-07-30T01:34:45.292Z,100828.98
2018-07-30T01:37:16.727Z,100832.81
2018-07-30T01:39:47.369Z,100832.91
2018-07-30T01:42:16.612Z,100833.13
2018-07-30T01:44:46.199Z,100834.16
2018-07-30T01:47:14.725Z,100830.72
2018-07-30T01:49:43.260Z,100840.16
2018-07-30T01:52:13.000Z,100842.41
2018-07-30T01:54:42.103Z,100848.91
2018-07-30T01:57:14.236Z,100851.14
2018-07-30T01:59:42.818Z,100851.53
2018-07-30T02:02:11.930Z,100855.71
2018-07-30T02:04:40.563Z,100860.04
2018-07-30T02:07:08.982Z,100860.89
2018-07-30T02:09:37.461Z,100863.95
2018-07-30T02:12:06.077Z,100861.38
2018-07-30T02:14:35.178Z,100862.80
2018-07-30T02:17:06.830Z,100864.95
2018-07-30T02:19:35.607Z,100866.88
2018-07-30T02:22:05.182Z,100863.30
2018-07-30T02:24:33.973Z,100864.78
2018-07-30T02:27:02.391Z,100869.72
2018-07-30T02:29:33.966Z,100861.98
2018-07-30T02:32:05.723Z,100866.09
2018-07-30T02:34:57.846Z,100864.71
2018-07-30T02:40:10.199Z,100873.91
2018-07-30T02:42:39.900Z,100869.58
2018-07-30T02:45:08.736Z,100869.46
2018-07-30T02:47:51.393Z,100869.46
2018-07-30T02:50:20.169Z,100873.23
2018-07-30T02:52:48.570Z,100874.50
2018-07-30T02:55:17.116Z,100872.92
2018-07-30T02:57:46.016Z,100879.94
2018-07-30T03:00:14.620Z,100880.84
2018-07-30T03:02:43.163Z,100883.47
2018-07-30T03:05:11.776Z,100882.38
2018-07-30T03:07:40.452Z,100887.41
2018-07-30T03:10:08.933Z,100888.72
2018-07-30T03:12:37.481Z,100884.73
2018-07-30T03:15:05.973Z,100891.83
2018-07-30T03:17:34.651Z,100893.77
2018-07-30T03:20:03.143Z,100900.89
2018-07-30T03:22:32.200Z,100895.03
2018-07-30T03:25:01.738Z,100895.30
2018-07-30T03:27:30.218Z,100891.89
2018-07-30T03:29:58.657Z,100886.34
2018-07-30T03:32:27.129Z,100892.34
2018-07-30T03:34:55.569Z,100892.30
2018-07-30T03:37:24.076Z,100886.92
2018-07-30T03:39:52.662Z,100887.23
2018-07-30T03:42:21.273Z,100889.78
2018-07-30T03:44:49.720Z,100889.16
2018-07-30T03:47:18.311Z,100890.24
2018-07-30T03:49:46.893Z,100889.39
2018-07-30T03:52:16.185Z,100890.70
2018-07-30T03:54:45.157Z,100894.89
2018-07-30T03:57:14.240Z,100883.78
2018-07-30T03:59:42.785Z,100888.63
2018-07-30T04:02:13.995Z,100891.88
2018-07-30T04:04:42.577Z,100891.64
2018-07-30T04:07:11.905Z,100896.69
2018-07-30T04:09:41.374Z,100900.84
2018-07-30T04:12:11.109Z,100902.84
2018-07-30T04:14:41.164Z,100894.81
2018-07-30T04:17:12.220Z,100900.13
2018-07-30T04:19:42.219Z,100907.31
2018-07-30T04:22:10.730Z,100904.38
2018-07-30T04:24:39.761Z,100907.39
2018-07-30T04:27:08.302Z,100908.53
2018-07-30T04:29:36.840Z,100916.08
2018-07-30T04:32:05.937Z,100913.06
2018-07-30T04:34:34.607Z,100913.69
2018-07-30T04:37:04.250Z,100909.75
2018-07-30T04:39:33.011Z,100918.24
2018-07-30T04:42:01.990Z,100924.44
2018-07-30T04:44:30.465Z,100921.55
2018-07-30T04:47:00.511Z,100924.86
2018-07-30T04:49:29.530Z,100927.55
2018-07-30T04:51:58.053Z,100927.25
2018-07-30T04:54:28.306Z,100931.08
2018-07-30T04:56:56.797Z,100928.91
2018-07-30T04:59:25.449Z,100929.93
2018-07-30T05:01:54.598Z,100928.74
2018-07-30T05:04:23.048Z,100927.80
2018-07-30T05:06:52.988Z,100935.81
2018-07-30T05:09:22.258Z,100937.12
2018-07-30T05:11:50.760Z,100939.22
2018-07-30T05:14:20.107Z,100939.91
2018-07-30T05:16:48.619Z,100943.38
2018-07-30T05:19:17.204Z,100941.39
2018-07-30T05:21:46.502Z,100941.70
2018-07-30T05:24:15.570Z,100944.71
2018-07-30T05:26:44.186Z,100944.08
2018-07-30T05:29:12.711Z,100943.62
2018-07-30T05:31:41.903Z,100945.33
2018-07-30T05:34:10.356Z,100952.42
2018-07-30T05:36:39.164Z,100950.80
2018-07-30T05:39:09.414Z,100954.47
2018-07-30T05:41:37.929Z,100956.86
2018-07-30T05:44:07.218Z,100957.00
2018-07-30T05:46:35.780Z,100958.08
2018-07-30T05:49:04.491Z,100958.45
2018-07-30T05:51:32.913Z,100959.81
2018-07-30T05:54:02.786Z,100958.32
2018-07-30T05:56:31.443Z,100960.88
2018-07-30T05:58:59.950Z,100965.14
2018-07-30T06:01:28.863Z,100965.36
2018-07-30T06:03:57.438Z,100967.17
2018-07-30T06:06:25.860Z,100965.33
2018-07-30T06:08:54.917Z,100970.08
2018-07-30T06:11:23.936Z,100973.20
2018-07-30T06:13:52.497Z,100978.81
2018-07-30T06:16:21.215Z,100979.95
2018-07-30T06:18:50.549Z,100985.70
2018-07-30T06:21:19.860Z,100987.76
2018-07-30T06:23:48.398Z,100991.73
2018-07-30T06:26:16.853Z,100982.66
2018-07-30T06:28:45.630Z,100981.36
2018-07-30T06:31:14.935Z,100975.92
2018-07-30T06:33:43.461Z,100984.48
2018-07-30T06:36:12.898Z,100988.06
2018-07-30T06:38:42.421Z,100997.67
2018-07-30T06:41:10.811Z,100997.30
2018-07-30T06:43:39.275Z,101000.06
2018-07-30T06:46:08.602Z,101002.89
2018-07-30T06:48:37.162Z,100998.94
2018-07-30T06:51:06.003Z,101002.16
2018-07-30T06:53:34.450Z,101008.02
2018-07-30T06:56:03.136Z,101007.17
2018-07-30T06:58:32.236Z,101011.59
2018-07-30T07:01:00.874Z,101003.81
2018-07-30T07:03:29.415Z,101007.19
2018-07-30T07:05:58.487Z,101009.93
2018-07-30T07:08:26.868Z,101003.81
2018-07-30T07:10:55.575Z,101010.95
2018-07-30T07:13:23.938Z,101018.38
2018-07-30T07:15:52.789Z,101020.36
2018-07-30T07:18:21.922Z,101024.70
2018-07-30T07:20:51.288Z,101021.95
2018-07-30T07:23:20.347Z,101027.60
2018-07-30T07:25:48.923Z,101026.48
2018-07-30T07:28:17.995Z,101025.38
2018-07-30T07:30:47.326Z,101028.85
2018-07-30T07:33:16.690Z,101025.55
2018-07-30T07:35:45.655Z,101026.66
2018-07-30T07:38:15.681Z,101028.62
2018-07-30T07:40:46.203Z,101026.09
2018-07-30T07:43:15.448Z,101033.78
2018-07-30T07:45:44.038Z,101030.95
2018-07-30T07:48:13.988Z,101027.91
2018-07-30T07:50:43.021Z,101029.41
2018-07-30T07:53:12.511Z,101025.11
2018-07-30T07:55:42.157Z,101031.03
2018-07-30T07:58:12.188Z,101025.08
2018-07-30T08:00:40.949Z,101027.05
2018-07-30T08:03:09.978Z,101031.45
2018-07-30T08:05:38.531Z,101032.94
2018-07-30T08:08:07.526Z,101034.05
2018-07-30T08:10:36.552Z,101035.16
2018-07-30T08:13:06.433Z,101028.27
2018-07-30T08:15:36.026Z,101035.05
2018-07-30T08:18:05.326Z,101038.50
2018-07-30T08:20:36.458Z,101037.49
2018-07-30T08:23:05.762Z,101033.05
2018-07-30T08:25:34.598Z,101040.30
2018-07-30T08:28:03.686Z,101030.70
2018-07-30T08:30:32.164Z,101031.34
2018-07-30T08:33:00.728Z,101033.34
2018-07-30T08:35:29.819Z,101034.36
2018-07-30T08:37:58.328Z,101034.19
2018-07-30T08:40:27.973Z,101033.88
2018-07-30T08:42:56.558Z,101036.22
2018-07-30T08:45:25.939Z,101038.08
2018-07-30T08:47:56.304Z,101040.03
2018-07-30T08:50:25.545Z,101033.69
2018-07-30T08:52:55.336Z,101048.59
2018-07-30T08:55:24.410Z,101041.39
2018-07-30T08:57:53.835Z,101035.80
2018-07-30T09:00:22.758Z,101040.08
2018-07-30T09:02:51.712Z,101043.95
2018-07-30T09:06:22.932Z,101044.90
2018-07-30T09:08:52.685Z,101045.53
2018-07-30T09:11:21.150Z,101043.95
2018-07-30T09:13:51.135Z,101043.73
2018-07-30T09:16:19.934Z,101044.39
2018-07-30T09:18:48.980Z,101046.17
2018-07-30T09:21:18.125Z,101050.59
2018-07-30T09:23:47.624Z,101053.27
2018-07-30T09:26:16.297Z,101054.59
2018-07-30T09:28:45.744Z,101052.17
2018-07-30T09:31:16.237Z,101051.55
2018-07-30T09:33:45.446Z,101051.79
2018-07-30T09:36:16.634Z,101056.38
2018-07-30T09:38:46.639Z,101058.61
2018-07-30T09:41:15.071Z,101051.45
2018-07-30T09:43:43.484Z,101051.50
2018-07-30T09:46:12.862Z,101048.72
2018-07-30T09:48:41.755Z,101049.95
2018-07-30T09:51:10.715Z,101046.61
2018-07-30T09:53:39.342Z,101050.00
2018-07-30T09:56:13.959Z,101050.15
2018-07-30T09:58:43.171Z,101054.03
2018-07-30T10:01:16.879Z,101057.44
2018-07-30T10:03:45.562Z,101060.95
2018-07-30T10:06:14.065Z,101055.72
2018-07-30T10:08:43.478Z,101053.55
2018-07-30T10:11:11.957Z,101053.70
2018-07-30T10:13:40.808Z,101045.69
2018-07-30T10:16:09.670Z,101048.33
2018-07-30T10:18:38.157Z,101049.55
2018-07-30T10:21:07.328Z,101049.80
2018-07-30T10:23:35.833Z,101042.83
2018-07-30T10:26:04.414Z,101041.00
2018-07-30T10:28:33.015Z,101033.20
2018-07-30T10:31:01.785Z,101036.14
2018-07-30T10:33:30.445Z,101026.88
2018-07-30T10:36:00.126Z,101025.92
2018-07-30T10:38:31.249Z,101026.26
2018-07-30T10:40:59.820Z,101026.38
2018-07-30T10:43:30.141Z,101026.51
2018-07-30T10:45:59.937Z,101027.95
2018-07-30T10:48:30.304Z,101020.95
2018-07-30T10:51:00.016Z,101016.52
2018-07-30T10:53:30.157Z,101010.83
2018-07-30T10:55:58.713Z,101012.53
2018-07-30T10:58:27.312Z,101011.81
2018-07-30T11:00:57.428Z,101006.98
2018-07-30T11:03:27.180Z,101007.09
2018-07-30T11:05:55.679Z,101002.63
2018-07-30T11:08:25.015Z,101009.13
2018-07-30T11:10:55.984Z,100998.78
2018-07-30T11:13:25.942Z,101008.45
2018-07-30T11:15:55.101Z,101002.16
2018-07-30T11:18:23.639Z,101002.38
2018-07-30T11:20:52.740Z,101004.27
2018-07-30T11:23:22.711Z,101007.12
2018-07-30T11:25:52.605Z,100995.75
2018-07-30T11:28:21.641Z,100995.84
2018-07-30T11:30:50.455Z,100993.04
2018-07-30T11:33:19.325Z,100991.78
2018-07-30T11:35:48.426Z,100986.34
2018-07-30T11:38:17.976Z,100991.72
2018-07-30T11:40:46.531Z,100993.16
2018-07-30T11:43:15.107Z,100982.84
2018-07-30T11:45:45.898Z,100983.08
2018-07-30T11:48:15.087Z,100975.30
2018-07-30T11:50:44.475Z,100974.95
2018-07-30T11:53:13.805Z,100976.77
2018-07-30T11:55:42.956Z,100969.75
2018-07-30T11:58:11.430Z,100974.16
2018-07-30T12:00:40.440Z,100977.30
2018-07-30T12:03:09.444Z,100971.30
2018-07-30T12:05:38.510Z,100974.62
2018-07-30T12:08:09.402Z,100966.03
2018-07-30T12:10:40.461Z,100954.55
2018-07-30T12:13:09.026Z,100958.06
2018-07-30T12:15:37.573Z,100960.32
2018-07-30T12:18:06.709Z,100963.19
2018-07-30T12:20:35.265Z,100956.41
2018-07-30T12:23:04.560Z,100954.35
2018-07-30T12:25:33.890Z,100950.50
2018-07-30T12:28:04.009Z,100945.45
2018-07-30T12:30:32.614Z,100946.02
2018-07-30T12:33:01.826Z,100939.70
2018-07-30T12:35:30.787Z,100938.99
2018-07-30T12:37:59.388Z,100938.48
2018-07-30T12:40:32.099Z,100935.34
2018-07-30T12:43:02.397Z,100942.67
2018-07-30T12:52:22.405Z,100936.77
2018-07-30T12:54:51.286Z,100939.58
2018-07-30T12:57:20.141Z,100936.59
2018-07-30T12:59:48.847Z,100932.99
2018-07-30T13:02:19.433Z,100933.59
2018-07-30T13:04:49.746Z,100929.63
2018-07-30T13:07:18.850Z,100927.56
2018-07-30T13:09:47.370Z,100924.27
2018-07-30T13:12:16.913Z,100923.44
2018-07-30T13:14:45.501Z,100926.23
2018-07-30T13:17:15.175Z,100916.67
2018-07-30T13:19:45.537Z,100919.20
2018-07-30T13:22:14.737Z,100906.98
2018-07-30T13:24:47.165Z,100910.67
2018-07-30T13:27:15.677Z,100905.47
2018-07-30T13:29:44.205Z,100906.91
2018-07-30T13:32:12.786Z,100897.73
2018-07-30T13:34:41.431Z,100901.37
2018-07-30T13:37:10.465Z,100893.63
2018-07-30T13:39:38.895Z,100896.40
2018-07-30T13:42:08.751Z,100891.15
2018-07-30T13:44:37.365Z,100883.33
2018-07-30T13:47:06.871Z,100891.13
2018-07-30T13:49:36.594Z,100884.64
2018-07-30T13:52:06.545Z,100878.45
2018-07-30T13:54:35.053Z,100874.61
2018-07-30T13:57:03.698Z,100878.97
2018-07-30T13:59:32.281Z,100875.94
2018-07-30T14:02:01.058Z,100877.29
2018-07-30T14:04:29.548Z,100874.91
2018-07-30T14:07:00.116Z,100866.92
2018-07-30T14:09:28.989Z,100865.17
2018-07-30T14:11:57.440Z,100874.59
2018-07-30T14:14:26.050Z,100869.47
2018-07-30T14:16:54.655Z,100867.75
2018-07-30T14:19:23.286Z,100862.81
2018-07-30T14:21:52.231Z,100866.58
2018-07-30T14:24:21.277Z,100867.43
2018-07-30T14:26:50.785Z,100865.70
2018-07-30T14:29:19.339Z,100865.41
2018-07-30T14:31:48.469Z,100868.55
2018-07-30T14:34:18.271Z,100862.73
2018-07-30T14:36:47.032Z,100859.95
2018-07-30T14:39:16.031Z,100853.28
2018-07-30T14:41:44.481Z,100856.80
2018-07-30T14:44:13.218Z,100854.69
2018-07-30T14:46:42.579Z,100851.17
2018-07-30T14:49:11.607Z,100849.91
2018-07-30T14:51:40.466Z,100855.39
2018-07-30T14:54:09.639Z,100854.62
2018-07-30T14:56:38.932Z,100848.78
2018-07-30T14:59:07.576Z,100855.18
2018-07-30T15:01:36.659Z,100846.72
2018-07-30T15:04:07.973Z,100849.25
2018-07-30T15:06:38.029Z,100843.94
2018-07-30T15:09:11.783Z,100841.95
2018-07-30T15:11:41.099Z,100844.31
2018-07-30T15:14:12.748Z,100842.28
2018-07-30T15:16:43.057Z,100845.31
2018-07-30T15:19:13.451Z,100840.94
2018-07-30T15:21:43.124Z,100845.84
2018-07-30T15:29:26.084Z,100841.27
2018-07-30T15:31:58.525Z,100832.60
2018-07-30T15:34:31.848Z,100830.58
2018-07-30T15:37:01.947Z,100829.58
2018-07-30T15:39:30.969Z,100822.38
2018-07-30T15:42:05.702Z,100819.52
2018-07-30T15:44:43.929Z,100821.39
2018-07-30T15:47:14.516Z,100824.05
2018-07-30T15:49:44.934Z,100829.05
2018-07-30T15:52:14.577Z,100823.11
2018-07-30T15:54:43.321Z,100830.41
2018-07-30T15:57:14.717Z,100829.97
2018-07-30T15:59:45.563Z,100831.11
2018-07-30T16:02:14.717Z,100827.16
2018-07-30T16:04:44.025Z,100829.02
2018-07-30T16:07:14.621Z,100827.30
2018-07-30T16:09:45.087Z,100826.03
2018-07-30T16:12:14.699Z,100823.86
2018-07-30T16:14:44.633Z,100821.22
2018-07-30T16:17:14.847Z,100818.45
2018-07-30T16:19:47.133Z,100817.53
2018-07-30T16:22:18.611Z,100808.19
2018-07-30T16:24:49.280Z,100819.84
2018-07-30T16:27:20.622Z,100817.52
2018-07-30T16:29:51.399Z,100814.50
2018-07-30T16:32:20.252Z,100816.87
2018-07-30T16:34:51.081Z,100811.80
2018-07-30T16:37:24.183Z,100813.30
2018-07-30T16:39:56.086Z,100813.11
2018-07-30T16:42:25.611Z,100812.50
2018-07-30T16:44:56.014Z,100816.51
2018-07-30T16:47:24.662Z,100818.14
2018-07-30T16:49:55.817Z,100817.75
2018-07-30T16:52:24.540Z,100816.48
2018-07-30T16:54:53.292Z,100814.22
2018-07-30T16:57:26.842Z,100811.31
2018-07-30T16:59:56.412Z,100817.05
2018-07-30T17:02:25.457Z,100816.50
2018-07-30T17:04:55.768Z,100810.55
2018-07-30T17:07:25.776Z,100811.27
2018-07-30T17:09:57.516Z,100814.03
2018-07-30T17:12:26.840Z,100816.14
2018-07-30T17:14:57.213Z,100816.72
2018-07-30T17:17:26.694Z,100809.00
2018-07-30T17:19:57.639Z,100816.47
2018-07-30T17:22:26.426Z,100818.78
2018-07-30T17:24:58.863Z,100816.61
2018-07-30T17:27:28.259Z,100820.66
2018-07-30T17:29:58.839Z,100821.47
2018-07-30T17:32:30.817Z,100823.10
2018-07-30T17:35:01.333Z,100821.45
2018-07-30T17:37:31.283Z,100823.27
2018-07-30T17:40:06.316Z,100825.02
2018-07-30T17:42:36.161Z,100828.11
2018-07-30T17:45:05.886Z,100828.05
2018-07-30T17:47:34.845Z,100829.13
2018-07-30T17:51:33.079Z,100830.39
2018-07-30T17:54:02.718Z,100831.88
2018-07-30T17:56:34.356Z,100830.64
2018-07-30T17:59:07.095Z,100829.36
2018-07-30T18:01:37.708Z,100833.77
2018-07-30T18:10:55.170Z,100834.66
2018-07-30T18:13:25.312Z,100835.23
2018-07-30T18:15:54.994Z,100840.77
2018-07-30T18:18:33.472Z,100842.30
2018-07-30T18:21:02.400Z,100840.77
2018-07-30T18:23:32.131Z,100840.00
2018-07-30T18:26:03.197Z,100840.53
2018-07-30T18:28:33.164Z,100844.39
2018-07-30T18:31:03.790Z,100844.91
2018-07-30T18:33:34.357Z,100844.49
2018-07-30T18:36:04.669Z,100852.17
2018-07-30T18:38:34.165Z,100846.89
2018-07-30T18:41:04.234Z,100849.12
2018-07-30T18:43:33.494Z,100856.25
2018-07-30T18:46:03.419Z,100852.33
2018-07-30T18:48:32.213Z,100854.32
2018-07-30T18:51:02.874Z,100853.75
2018-07-30T18:53:32.315Z,100853.83
2018-07-30T18:56:02.302Z,100859.91
2018-07-30T18:58:31.251Z,100861.08
2018-07-30T19:01:00.816Z,100866.01
2018-07-30T19:03:29.547Z,100872.21
2018-07-30T19:06:00.375Z,100867.34
2018-07-30T19:08:29.226Z,100873.65
2018-07-30T19:10:59.400Z,100868.61
2018-07-30T19:13:29.295Z,100881.92
2018-07-30T19:15:59.244Z,100877.20
2018-07-30T19:18:29.952Z,100876.98
2018-07-30T19:20:59.420Z,100877.36
2018-07-30T19:23:28.281Z,100883.51
2018-07-30T19:25:58.239Z,100886.90
2018-07-30T19:28:28.272Z,100886.42
2018-07-30T19:30:57.819Z,100888.48
2018-07-30T19:33:27.026Z,100891.50
2018-07-30T19:35:57.436Z,100894.52
2018-07-30T19:38:26.447Z,100895.36
2018-07-30T19:40:56.572Z,100897.17
2018-07-30T19:43:25.889Z,100899.34
2018-07-30T19:45:55.202Z,100901.52
2018-07-30T19:48:24.782Z,100901.77
2018-07-30T19:50:54.893Z,100903.45
2018-07-30T19:53:25.603Z,100902.64
2018-07-30T19:55:54.217Z,100900.60
2018-07-30T19:58:25.854Z,100903.72
2018-07-30T20:00:59.664Z,100907.34
2018-07-30T20:03:32.084Z,100909.66
2018-07-30T20:06:00.916Z,100905.42
2018-07-30T20:08:29.759Z,100910.98
2018-07-30T20:10:59.123Z,100907.22
2018-07-30T20:13:30.717Z,100908.31
2018-07-30T20:16:00.667Z,100906.87
2018-07-30T20:18:30.458Z,100903.62
2018-07-30T20:21:00.256Z,100901.42
2018-07-30T20:23:29.347Z,100901.44
2018-07-30T20:25:58.647Z,100899.39
2018-07-30T20:28:28.371Z,100900.48
2018-07-30T20:30:58.992Z,100901.55
2018-07-30T20:33:27.943Z,100908.66
2018-07-30T20:35:57.852Z,100910.09
2018-07-30T20:38:26.737Z,100908.23
2018-07-30T20:40:57.126Z,100910.52
2018-07-30T20:43:27.807Z,100910.14
2018-07-30T20:45:56.622Z,100907.94
2018-07-30T20:48:26.387Z,100912.25
2018-07-30T20:50:55.486Z,100913.09
2018-07-30T20:53:25.026Z,100912.11
2018-07-30T20:55:53.736Z,100910.08
2018-07-30T20:58:22.672Z,100908.84
2018-07-30T21:00:51.970Z,100912.81
2018-07-30T21:03:20.516Z,100913.39
2018-07-30T21:05:50.432Z,100913.87
2018-07-30T21:08:19.199Z,100908.81
2018-07-30T21:10:47.928Z,100914.95
2018-07-30T21:13:17.472Z,100909.89
2018-07-30T21:15:46.954Z,100911.31
2018-07-30T21:18:15.724Z,100912.30
2018-07-30T21:20:45.192Z,100911.08
2018-07-30T21:23:13.922Z,100912.22
2018-07-30T21:25:43.484Z,100908.96
2018-07-30T21:28:13.920Z,100914.59
2018-07-30T21:30:42.968Z,100912.78
2018-07-30T21:33:13.486Z,100909.98
2018-07-30T21:35:43.017Z,100913.81
2018-07-30T21:38:12.986Z,100913.19
2018-07-30T21:40:41.477Z,100913.42
2018-07-30T21:43:11.987Z,100913.99
2018-07-30T21:45:40.463Z,100914.70
2018-07-30T21:48:09.251Z,100912.28
2018-07-30T21:50:37.676Z,100914.91
2018-07-30T21:53:06.344Z,100913.44
2018-07-30T21:55:34.914Z,100914.36
2018-07-30T21:58:04.204Z,100915.53
2018-07-30T22:00:32.759Z,100917.14
2018-07-30T22:03:01.330Z,100927.55
2018-07-30T22:05:30.373Z,100922.25
2018-07-30T22:07:59.504Z,100925.20
2018-07-30T22:10:28.256Z,100932.25
2018-07-30T22:12:57.389Z,100930.02
2018-07-30T22:15:25.947Z,100929.17
2018-07-30T22:17:54.686Z,100933.13
2018-07-30T22:20:23.851Z,100928.54
2018-07-30T22:22:52.437Z,100925.55
2018-07-30T22:25:21.006Z,100929.52
2018-07-30T22:27:51.640Z,100933.95
2018-07-30T22:30:20.738Z,100931.41
2018-07-30T22:32:50.615Z,100924.92
2018-07-30T22:35:19.846Z,100927.19
2018-07-30T22:37:48.517Z,100923.91
2018-07-30T22:40:17.040Z,100918.00
2018-07-30T22:42:45.574Z,100920.95
2018-07-30T22:45:14.656Z,100922.12
2018-07-30T22:47:43.926Z,100919.22
2018-07-30T22:50:13.031Z,100921.61
2018-07-30T22:52:42.593Z,100919.19
2018-07-30T22:55:11.282Z,100919.08
2018-07-30T22:57:40.999Z,100934.07
2018-07-30T23:00:09.676Z,100929.69
2018-07-30T23:02:39.012Z,100919.44
2018-07-30T23:05:08.978Z,100926.08
2018-07-30T23:07:37.983Z,100921.48
2018-07-30T23:10:07.180Z,100919.45
2018-07-30T23:12:36.072Z,100919.16
2018-07-30T23:15:04.961Z,100913.41
2018-07-30T23:17:34.173Z,100914.72
2018-07-30T23:20:02.756Z,100915.15
2018-07-30T23:22:33.069Z,100910.94
2018-07-30T23:25:02.699Z,100912.94
2018-07-30T23:27:31.220Z,100910.47
2018-07-30T23:30:00.518Z,100907.70
2018-07-30T23:32:29.649Z,100910.05
2018-07-30T23:34:58.169Z,100906.59
2018-07-30T23:37:27.752Z,100900.77
2018-07-30T23:39:56.464Z,100899.19
2018-07-30T23:42:25.010Z,100901.16
2018-07-30T23:44:53.477Z,100900.72
2018-07-30T23:47:22.572Z,100896.70
2018-07-30T23:49:51.054Z,100897.77
2018-07-30T23:52:19.464Z,100894.48
2018-07-30T23:54:47.955Z,100898.99
2018-07-30T23:57:16.409Z,100901.84
2018-07-30T23:59:44.973Z,100903.91
